Аэропорт: Кольцово. Екатеринбург

ICAO: USSS

METAR:
2018/05/20 23:00
USSS 202300Z 29005MPS 9999 SCT020 BKN040 13/11 Q1012 R26R/290337 NOSIG RMK QFE738/0985
METAR:
2018/05/20 21:24
TAF USSS 202000Z 2021/2121 28006MPS 9999 BKN020CB 
      TEMPO 2021/2103 3100 -SHRA